sensor_id;sensor_type;location;lat;lon;timestamp;P1;durP1;ratioP1;P2;durP2;ratioP2
81864;SDS011;71313;43.514;1.500;2023-08-24T00:00:19;9.65;;;5.90;;
81864;SDS011;71313;43.514;1.500;2023-08-24T00:02:45;7.72;;;5.10;;
81864;SDS011;71313;43.514;1.500;2023-08-24T00:05:11;12.23;;;5.68;;
81864;SDS011;71313;43.514;1.500;2023-08-24T00:07:38;7.40;;;5.32;;
81864;SDS011;71313;43.514;1.500;2023-08-24T00:10:03;7.57;;;5.45;;
81864;SDS011;71313;43.514;1.500;2023-08-24T00:12:29;8.55;;;5.75;;
81864;SDS011;71313;43.514;1.500;2023-08-24T00:14:55;8.05;;;5.50;;
81864;SDS011;71313;43.514;1.500;2023-08-24T00:17:20;6.65;;;5.10;;
81864;SDS011;71313;43.514;1.500;2023-08-24T00:19:48;7.03;;;5.05;;
81864;SDS011;71313;43.514;1.500;2023-08-24T00:22:13;8.00;;;5.30;;
81864;SDS011;71313;43.514;1.500;2023-08-24T00:24:39;7.40;;;5.50;;
81864;SDS011;71313;43.514;1.500;2023-08-24T00:27:04;9.05;;;5.57;;
81864;SDS011;71313;43.514;1.500;2023-08-24T00:29:29;7.95;;;5.45;;
81864;SDS011;71313;43.514;1.500;2023-08-24T00:31:55;8.90;;;5.45;;
81864;SDS011;71313;43.514;1.500;2023-08-24T00:34:20;7.75;;;5.20;;
81864;SDS011;71313;43.514;1.500;2023-08-24T00:36:46;7.07;;;5.05;;
81864;SDS011;71313;43.514;1.500;2023-08-24T00:39:11;6.88;;;5.07;;
81864;SDS011;71313;43.514;1.500;2023-08-24T00:41:37;8.40;;;5.50;;
81864;SDS011;71313;43.514;1.500;2023-08-24T00:44:02;7.65;;;5.13;;
81864;SDS011;71313;43.514;1.500;2023-08-24T00:46:28;8.45;;;5.60;;
81864;SDS011;71313;43.514;1.500;2023-08-24T00:48:53;7.47;;;5.60;;
81864;SDS011;71313;43.514;1.500;2023-08-24T00:51:24;9.45;;;5.70;;
81864;SDS011;71313;43.514;1.500;2023-08-24T00:53:49;10.48;;;5.63;;
81864;SDS011;71313;43.514;1.500;2023-08-24T00:56:15;7.68;;;5.50;;
81864;SDS011;71313;43.514;1.500;2023-08-24T00:58:41;7.00;;;5.72;;
81864;SDS011;71313;43.514;1.500;2023-08-24T01:01:09;7.47;;;5.55;;
81864;SDS011;71313;43.514;1.500;2023-08-24T01:03:34;8.40;;;5.88;;
81864;SDS011;71313;43.514;1.500;2023-08-24T01:06:00;8.15;;;5.85;;
81864;SDS011;71313;43.514;1.500;2023-08-24T01:08:25;9.10;;;5.22;;
81864;SDS011;71313;43.514;1.500;2023-08-24T01:10:59;8.93;;;5.45;;
81864;SDS011;71313;43.514;1.500;2023-08-24T01:13:41;7.97;;;5.40;;
81864;SDS011;71313;43.514;1.500;2023-08-24T01:16:16;8.43;;;5.30;;
81864;SDS011;71313;43.514;1.500;2023-08-24T01:18:46;9.15;;;5.82;;
81864;SDS011;71313;43.514;1.500;2023-08-24T01:21:13;7.90;;;5.47;;
81864;SDS011;71313;43.514;1.500;2023-08-24T01:26:28;7.90;;;5.05;;
81864;SDS011;71313;43.514;1.500;2023-08-24T01:28:54;8.02;;;5.82;;
81864;SDS011;71313;43.514;1.500;2023-08-24T01:31:19;8.73;;;5.93;;
81864;SDS011;71313;43.514;1.500;2023-08-24T01:33:45;7.35;;;5.65;;
81864;SDS011;71313;43.514;1.500;2023-08-24T01:36:11;8.45;;;5.80;;
81864;SDS011;71313;43.514;1.500;2023-08-24T01:38:39;8.38;;;6.05;;
81864;SDS011;71313;43.514;1.500;2023-08-24T01:43:40;9.10;;;5.80;;
81864;SDS011;71313;43.514;1.500;2023-08-24T01:46:08;9.20;;;5.75;;
81864;SDS011;71313;43.514;1.500;2023-08-24T01:48:37;7.10;;;5.68;;
81864;SDS011;71313;43.514;1.500;2023-08-24T01:51:04;7.63;;;5.93;;
81864;SDS011;71313;43.514;1.500;2023-08-24T01:53:30;9.20;;;5.60;;
81864;SDS011;71313;43.514;1.500;2023-08-24T01:55:57;7.15;;;5.30;;
81864;SDS011;71313;43.514;1.500;2023-08-24T01:58:22;7.38;;;5.43;;
81864;SDS011;71313;43.514;1.500;2023-08-24T02:00:48;7.40;;;5.43;;
81864;SDS011;71313;43.514;1.500;2023-08-24T02:03:14;7.25;;;5.57;;
81864;SDS011;71313;43.514;1.500;2023-08-24T02:05:39;8.05;;;5.93;;
81864;SDS011;71313;43.514;1.500;2023-08-24T02:08:05;8.07;;;5.85;;
81864;SDS011;71313;43.514;1.500;2023-08-24T02:10:30;8.50;;;6.20;;
81864;SDS011;71313;43.514;1.500;2023-08-24T02:12:56;8.52;;;5.90;;
81864;SDS011;71313;43.514;1.500;2023-08-24T02:15:21;7.38;;;5.95;;
81864;SDS011;71313;43.514;1.500;2023-08-24T02:17:47;7.82;;;6.13;;
81864;SDS011;71313;43.514;1.500;2023-08-24T02:20:12;8.98;;;6.53;;
81864;SDS011;71313;43.514;1.500;2023-08-24T02:22:38;8.90;;;5.85;;
81864;SDS011;71313;43.514;1.500;2023-08-24T02:25:04;6.80;;;5.35;;
81864;SDS011;71313;43.514;1.500;2023-08-24T02:27:31;7.70;;;5.80;;
81864;SDS011;71313;43.514;1.500;2023-08-24T02:29:57;7.15;;;5.95;;
81864;SDS011;71313;43.514;1.500;2023-08-24T02:32:22;8.55;;;6.18;;
81864;SDS011;71313;43.514;1.500;2023-08-24T02:34:48;8.25;;;5.82;;
81864;SDS011;71313;43.514;1.500;2023-08-24T02:37:13;8.50;;;6.20;;
81864;SDS011;71313;43.514;1.500;2023-08-24T02:39:39;7.97;;;5.90;;
81864;SDS011;71313;43.514;1.500;2023-08-24T02:42:04;6.85;;;5.88;;
81864;SDS011;71313;43.514;1.500;2023-08-24T02:44:30;8.18;;;6.03;;
81864;SDS011;71313;43.514;1.500;2023-08-24T02:46:56;7.75;;;6.28;;
81864;SDS011;71313;43.514;1.500;2023-08-24T02:49:22;8.32;;;6.20;;
81864;SDS011;71313;43.514;1.500;2023-08-24T02:51:48;7.10;;;5.72;;
81864;SDS011;71313;43.514;1.500;2023-08-24T02:54:13;8.18;;;6.43;;
81864;SDS011;71313;43.514;1.500;2023-08-24T02:56:39;9.50;;;5.93;;
81864;SDS011;71313;43.514;1.500;2023-08-24T02:59:04;7.63;;;6.32;;
81864;SDS011;71313;43.514;1.500;2023-08-24T03:01:30;9.07;;;6.28;;
81864;SDS011;71313;43.514;1.500;2023-08-24T03:03:55;9.20;;;6.45;;
81864;SDS011;71313;43.514;1.500;2023-08-24T03:06:21;8.18;;;5.90;;
81864;SDS011;71313;43.514;1.500;2023-08-24T03:08:48;8.23;;;6.25;;
81864;SDS011;71313;43.514;1.500;2023-08-24T03:11:14;7.72;;;5.90;;
81864;SDS011;71313;43.514;1.500;2023-08-24T03:13:40;7.47;;;6.20;;
81864;SDS011;71313;43.514;1.500;2023-08-24T03:16:05;8.75;;;5.88;;
81864;SDS011;71313;43.514;1.500;2023-08-24T03:18:31;8.15;;;6.38;;
81864;SDS011;71313;43.514;1.500;2023-08-24T03:20:57;9.13;;;6.07;;
81864;SDS011;71313;43.514;1.500;2023-08-24T03:23:23;9.02;;;6.40;;
81864;SDS011;71313;43.514;1.500;2023-08-24T03:25:48;7.57;;;6.05;;
81864;SDS011;71313;43.514;1.500;2023-08-24T03:28:14;8.48;;;6.32;;
81864;SDS011;71313;43.514;1.500;2023-08-24T03:30:45;8.73;;;6.22;;
81864;SDS011;71313;43.514;1.500;2023-08-24T03:33:11;8.88;;;6.10;;
81864;SDS011;71313;43.514;1.500;2023-08-24T03:35:37;8.45;;;6.13;;
81864;SDS011;71313;43.514;1.500;2023-08-24T03:38:02;8.02;;;6.38;;
81864;SDS011;71313;43.514;1.500;2023-08-24T03:40:29;9.35;;;6.50;;
81864;SDS011;71313;43.514;1.500;2023-08-24T03:42:55;8.23;;;5.82;;
81864;SDS011;71313;43.514;1.500;2023-08-24T03:45:21;9.30;;;6.07;;
81864;SDS011;71313;43.514;1.500;2023-08-24T03:47:46;7.40;;;6.03;;
81864;SDS011;71313;43.514;1.500;2023-08-24T03:50:12;8.98;;;6.60;;
81864;SDS011;71313;43.514;1.500;2023-08-24T03:52:37;8.90;;;6.50;;
81864;SDS011;71313;43.514;1.500;2023-08-24T03:55:04;8.20;;;6.40;;
81864;SDS011;71313;43.514;1.500;2023-08-24T03:57:31;7.85;;;6.10;;
81864;SDS011;71313;43.514;1.500;2023-08-24T03:59:57;8.27;;;6.13;;
81864;SDS011;71313;43.514;1.500;2023-08-24T04:02:22;9.48;;;6.50;;
81864;SDS011;71313;43.514;1.500;2023-08-24T04:04:48;8.55;;;6.10;;
81864;SDS011;71313;43.514;1.500;2023-08-24T04:07:14;8.38;;;6.35;;
81864;SDS011;71313;43.514;1.500;2023-08-24T04:09:40;7.70;;;6.03;;
81864;SDS011;71313;43.514;1.500;2023-08-24T04:12:05;8.25;;;6.47;;
81864;SDS011;71313;43.514;1.500;2023-08-24T04:14:31;7.75;;;6.30;;
81864;SDS011;71313;43.514;1.500;2023-08-24T04:16:56;7.55;;;5.95;;
81864;SDS011;71313;43.514;1.500;2023-08-24T04:19:21;8.80;;;6.20;;
81864;SDS011;71313;43.514;1.500;2023-08-24T04:21:47;7.72;;;6.30;;
81864;SDS011;71313;43.514;1.500;2023-08-24T04:24:12;7.63;;;5.78;;
81864;SDS011;71313;43.514;1.500;2023-08-24T04:26:38;8.57;;;6.45;;
81864;SDS011;71313;43.514;1.500;2023-08-24T04:29:03;7.68;;;5.93;;
81864;SDS011;71313;43.514;1.500;2023-08-24T04:31:28;8.18;;;6.25;;
81864;SDS011;71313;43.514;1.500;2023-08-24T04:33:54;7.70;;;6.45;;
81864;SDS011;71313;43.514;1.500;2023-08-24T04:36:19;8.40;;;6.28;;
81864;SDS011;71313;43.514;1.500;2023-08-24T04:38:45;9.68;;;6.53;;
81864;SDS011;71313;43.514;1.500;2023-08-24T04:41:10;8.75;;;6.35;;
81864;SDS011;71313;43.514;1.500;2023-08-24T04:43:37;8.18;;;6.18;;
81864;SDS011;71313;43.514;1.500;2023-08-24T04:46:02;9.23;;;6.65;;
81864;SDS011;71313;43.514;1.500;2023-08-24T04:48:28;7.43;;;6.03;;
81864;SDS011;71313;43.514;1.500;2023-08-24T04:50:58;7.75;;;6.10;;
81864;SDS011;71313;43.514;1.500;2023-08-24T04:53:24;7.75;;;5.88;;
81864;SDS011;71313;43.514;1.500;2023-08-24T04:55:49;9.32;;;6.25;;
81864;SDS011;71313;43.514;1.500;2023-08-24T04:58:15;7.18;;;6.00;;
81864;SDS011;71313;43.514;1.500;2023-08-24T05:00:41;9.30;;;6.32;;
81864;SDS011;71313;43.514;1.500;2023-08-24T05:03:06;8.85;;;6.53;;
81864;SDS011;71313;43.514;1.500;2023-08-24T05:05:33;8.85;;;6.72;;
81864;SDS011;71313;43.514;1.500;2023-08-24T05:07:59;8.20;;;6.53;;
81864;SDS011;71313;43.514;1.500;2023-08-24T05:10:26;8.50;;;6.30;;
81864;SDS011;71313;43.514;1.500;2023-08-24T05:12:55;7.93;;;5.85;;
81864;SDS011;71313;43.514;1.500;2023-08-24T05:15:21;8.18;;;5.95;;
81864;SDS011;71313;43.514;1.500;2023-08-24T05:17:46;8.68;;;6.40;;
81864;SDS011;71313;43.514;1.500;2023-08-24T05:20:12;9.13;;;6.47;;
81864;SDS011;71313;43.514;1.500;2023-08-24T05:22:37;10.02;;;6.15;;
81864;SDS011;71313;43.514;1.500;2023-08-24T05:25:05;7.80;;;6.18;;
81864;SDS011;71313;43.514;1.500;2023-08-24T05:27:31;7.18;;;6.40;;
81864;SDS011;71313;43.514;1.500;2023-08-24T05:29:57;9.57;;;6.80;;
81864;SDS011;71313;43.514;1.500;2023-08-24T05:32:22;7.97;;;6.60;;
81864;SDS011;71313;43.514;1.500;2023-08-24T05:34:48;9.18;;;6.32;;
81864;SDS011;71313;43.514;1.500;2023-08-24T05:37:13;9.40;;;6.35;;
81864;SDS011;71313;43.514;1.500;2023-08-24T05:39:38;9.40;;;6.35;;
81864;SDS011;71313;43.514;1.500;2023-08-24T05:42:04;9.00;;;6.20;;
81864;SDS011;71313;43.514;1.500;2023-08-24T05:44:30;8.50;;;6.55;;
81864;SDS011;71313;43.514;1.500;2023-08-24T05:46:56;9.55;;;6.55;;
81864;SDS011;71313;43.514;1.500;2023-08-24T05:49:21;8.52;;;6.60;;
81864;SDS011;71313;43.514;1.500;2023-08-24T05:51:46;8.70;;;6.68;;
81864;SDS011;71313;43.514;1.500;2023-08-24T05:54:14;9.35;;;6.57;;
81864;SDS011;71313;43.514;1.500;2023-08-24T05:56:43;8.80;;;6.35;;
81864;SDS011;71313;43.514;1.500;2023-08-24T05:59:09;10.13;;;6.43;;
81864;SDS011;71313;43.514;1.500;2023-08-24T06:01:34;8.93;;;6.93;;
81864;SDS011;71313;43.514;1.500;2023-08-24T06:04:03;9.52;;;6.53;;
81864;SDS011;71313;43.514;1.500;2023-08-24T06:06:32;7.82;;;6.35;;
81864;SDS011;71313;43.514;1.500;2023-08-24T06:08:58;8.50;;;6.00;;
81864;SDS011;71313;43.514;1.500;2023-08-24T06:11:23;8.68;;;6.50;;
81864;SDS011;71313;43.514;1.500;2023-08-24T06:13:49;7.85;;;6.60;;
81864;SDS011;71313;43.514;1.500;2023-08-24T06:16:14;10.13;;;6.95;;
81864;SDS011;71313;43.514;1.500;2023-08-24T06:18:40;10.57;;;6.80;;
81864;SDS011;71313;43.514;1.500;2023-08-24T06:21:05;10.18;;;6.95;;
81864;SDS011;71313;43.514;1.500;2023-08-24T06:23:31;10.82;;;6.95;;
81864;SDS011;71313;43.514;1.500;2023-08-24T06:25:56;10.48;;;6.82;;
81864;SDS011;71313;43.514;1.500;2023-08-24T06:28:21;8.15;;;6.80;;
81864;SDS011;71313;43.514;1.500;2023-08-24T06:30:47;10.52;;;6.97;;
81864;SDS011;71313;43.514;1.500;2023-08-24T06:33:13;10.43;;;6.97;;
81864;SDS011;71313;43.514;1.500;2023-08-24T06:35:38;10.30;;;6.50;;
81864;SDS011;71313;43.514;1.500;2023-08-24T06:38:05;10.32;;;6.60;;
81864;SDS011;71313;43.514;1.500;2023-08-24T06:40:31;10.05;;;6.43;;
81864;SDS011;71313;43.514;1.500;2023-08-24T06:42:56;9.30;;;6.07;;
81864;SDS011;71313;43.514;1.500;2023-08-24T06:45:22;8.70;;;6.32;;
81864;SDS011;71313;43.514;1.500;2023-08-24T06:47:48;10.57;;;7.05;;
81864;SDS011;71313;43.514;1.500;2023-08-24T06:50:14;11.10;;;7.10;;
81864;SDS011;71313;43.514;1.500;2023-08-24T06:52:40;10.93;;;7.07;;
81864;SDS011;71313;43.514;1.500;2023-08-24T06:55:08;12.32;;;7.43;;
81864;SDS011;71313;43.514;1.500;2023-08-24T06:57:34;9.68;;;6.35;;
81864;SDS011;71313;43.514;1.500;2023-08-24T07:00:00;9.63;;;6.63;;
81864;SDS011;71313;43.514;1.500;2023-08-24T07:02:25;9.07;;;5.88;;
81864;SDS011;71313;43.514;1.500;2023-08-24T07:04:51;8.75;;;7.10;;
81864;SDS011;71313;43.514;1.500;2023-08-24T07:07:16;10.68;;;6.72;;
81864;SDS011;71313;43.514;1.500;2023-08-24T07:09:42;10.43;;;6.45;;
81864;SDS011;71313;43.514;1.500;2023-08-24T07:12:08;11.13;;;6.07;;
81864;SDS011;71313;43.514;1.500;2023-08-24T07:14:35;8.48;;;6.28;;
81864;SDS011;71313;43.514;1.500;2023-08-24T07:17:01;8.75;;;5.80;;
81864;SDS011;71313;43.514;1.500;2023-08-24T07:19:27;6.85;;;5.55;;
81864;SDS011;71313;43.514;1.500;2023-08-24T07:21:53;9.02;;;6.18;;
81864;SDS011;71313;43.514;1.500;2023-08-24T07:24:18;9.15;;;6.35;;
81864;SDS011;71313;43.514;1.500;2023-08-24T07:26:45;9.30;;;6.05;;
81864;SDS011;71313;43.514;1.500;2023-08-24T07:29:11;8.57;;;6.15;;
81864;SDS011;71313;43.514;1.500;2023-08-24T07:31:36;9.50;;;6.20;;
81864;SDS011;71313;43.514;1.500;2023-08-24T07:34:02;7.75;;;5.85;;
81864;SDS011;71313;43.514;1.500;2023-08-24T07:36:28;8.00;;;5.57;;
81864;SDS011;71313;43.514;1.500;2023-08-24T07:38:55;10.23;;;6.18;;
81864;SDS011;71313;43.514;1.500;2023-08-24T07:41:20;9.65;;;5.90;;
81864;SDS011;71313;43.514;1.500;2023-08-24T07:43:46;8.90;;;5.93;;
81864;SDS011;71313;43.514;1.500;2023-08-24T07:46:11;8.98;;;5.80;;
81864;SDS011;71313;43.514;1.500;2023-08-24T07:48:37;9.52;;;5.90;;
81864;SDS011;71313;43.514;1.500;2023-08-24T07:51:02;10.48;;;6.30;;
81864;SDS011;71313;43.514;1.500;2023-08-24T07:53:28;9.25;;;6.40;;
81864;SDS011;71313;43.514;1.500;2023-08-24T07:55:54;10.18;;;6.30;;
81864;SDS011;71313;43.514;1.500;2023-08-24T07:58:23;11.02;;;6.43;;
81864;SDS011;71313;43.514;1.500;2023-08-24T08:00:49;10.98;;;6.43;;
81864;SDS011;71313;43.514;1.500;2023-08-24T08:03:17;10.50;;;6.20;;
81864;SDS011;71313;43.514;1.500;2023-08-24T08:05:42;10.57;;;5.90;;
81864;SDS011;71313;43.514;1.500;2023-08-24T08:08:08;10.32;;;6.03;;
81864;SDS011;71313;43.514;1.500;2023-08-24T08:10:33;10.23;;;5.35;;
81864;SDS011;71313;43.514;1.500;2023-08-24T08:12:59;9.65;;;5.93;;
81864;SDS011;71313;43.514;1.500;2023-08-24T08:15:24;9.82;;;5.40;;
81864;SDS011;71313;43.514;1.500;2023-08-24T08:17:50;8.70;;;5.70;;
81864;SDS011;71313;43.514;1.500;2023-08-24T08:20:16;10.80;;;5.50;;
81864;SDS011;71313;43.514;1.500;2023-08-24T08:22:41;11.20;;;5.80;;
81864;SDS011;71313;43.514;1.500;2023-08-24T08:25:07;10.30;;;6.38;;
81864;SDS011;71313;43.514;1.500;2023-08-24T08:27:32;9.27;;;6.30;;
81864;SDS011;71313;43.514;1.500;2023-08-24T08:29:58;10.10;;;6.20;;
81864;SDS011;71313;43.514;1.500;2023-08-24T08:32:24;11.30;;;5.60;;
81864;SDS011;71313;43.514;1.500;2023-08-24T08:34:52;9.85;;;5.53;;
81864;SDS011;71313;43.514;1.500;2023-08-24T08:37:23;10.05;;;6.35;;
81864;SDS011;71313;43.514;1.500;2023-08-24T08:39:48;10.05;;;6.00;;
81864;SDS011;71313;43.514;1.500;2023-08-24T08:42:14;8.80;;;5.82;;
81864;SDS011;71313;43.514;1.500;2023-08-24T08:44:39;8.27;;;5.60;;
81864;SDS011;71313;43.514;1.500;2023-08-24T08:47:06;10.02;;;5.82;;
81864;SDS011;71313;43.514;1.500;2023-08-24T08:49:33;8.27;;;5.35;;
81864;SDS011;71313;43.514;1.500;2023-08-24T08:52:00;8.75;;;5.63;;
81864;SDS011;71313;43.514;1.500;2023-08-24T08:54:27;9.65;;;5.35;;
81864;SDS011;71313;43.514;1.500;2023-08-24T08:56:53;10.52;;;5.80;;
81864;SDS011;71313;43.514;1.500;2023-08-24T08:59:19;6.82;;;5.95;;
81864;SDS011;71313;43.514;1.500;2023-08-24T09:01:47;10.52;;;6.72;;
81864;SDS011;71313;43.514;1.500;2023-08-24T09:04:12;10.13;;;5.60;;
81864;SDS011;71313;43.514;1.500;2023-08-24T09:06:38;8.07;;;5.38;;
81864;SDS011;71313;43.514;1.500;2023-08-24T09:09:04;12.43;;;6.72;;
81864;SDS011;71313;43.514;1.500;2023-08-24T09:11:31;18.27;;;7.53;;
81864;SDS011;71313;43.514;1.500;2023-08-24T09:13:58;10.65;;;6.72;;
81864;SDS011;71313;43.514;1.500;2023-08-24T09:16:23;11.27;;;6.65;;
81864;SDS011;71313;43.514;1.500;2023-08-24T09:18:54;11.25;;;6.85;;
81864;SDS011;71313;43.514;1.500;2023-08-24T09:21:19;11.18;;;5.80;;
81864;SDS011;71313;43.514;1.500;2023-08-24T09:23:45;12.15;;;6.57;;
81864;SDS011;71313;43.514;1.500;2023-08-24T09:26:30;10.95;;;6.43;;
81864;SDS011;71313;43.514;1.500;2023-08-24T09:28:57;9.13;;;6.00;;
81864;SDS011;71313;43.514;1.500;2023-08-24T09:31:23;9.57;;;6.40;;
81864;SDS011;71313;43.514;1.500;2023-08-24T09:34:00;9.25;;;6.47;;
81864;SDS011;71313;43.514;1.500;2023-08-24T09:36:26;9.77;;;6.25;;
81864;SDS011;71313;43.514;1.500;2023-08-24T09:38:51;10.10;;;6.57;;
81864;SDS011;71313;43.514;1.500;2023-08-24T09:41:17;10.20;;;6.45;;
81864;SDS011;71313;43.514;1.500;2023-08-24T09:43:42;12.15;;;7.15;;
81864;SDS011;71313;43.514;1.500;2023-08-24T09:46:08;11.23;;;6.47;;
81864;SDS011;71313;43.514;1.500;2023-08-24T09:48:33;9.48;;;6.22;;
81864;SDS011;71313;43.514;1.500;2023-08-24T09:51:00;9.60;;;6.18;;
81864;SDS011;71313;43.514;1.500;2023-08-24T09:53:29;9.40;;;6.40;;
81864;SDS011;71313;43.514;1.500;2023-08-24T09:56:01;11.10;;;6.55;;
81864;SDS011;71313;43.514;1.500;2023-08-24T09:58:28;9.15;;;5.80;;
81864;SDS011;71313;43.514;1.500;2023-08-24T10:00:54;11.38;;;6.50;;
81864;SDS011;71313;43.514;1.500;2023-08-24T10:03:21;10.23;;;6.35;;
81864;SDS011;71313;43.514;1.500;2023-08-24T10:05:56;9.48;;;6.35;;
81864;SDS011;71313;43.514;1.500;2023-08-24T10:08:26;8.95;;;6.38;;
81864;SDS011;71313;43.514;1.500;2023-08-24T10:10:55;9.40;;;6.53;;
81864;SDS011;71313;43.514;1.500;2023-08-24T10:13:28;8.18;;;6.25;;
81864;SDS011;71313;43.514;1.500;2023-08-24T10:15:59;11.25;;;7.05;;
81864;SDS011;71313;43.514;1.500;2023-08-24T10:18:25;9.63;;;6.22;;
81864;SDS011;71313;43.514;1.500;2023-08-24T10:20:52;8.27;;;5.80;;
81864;SDS011;71313;43.514;1.500;2023-08-24T10:23:18;9.82;;;6.40;;
81864;SDS011;71313;43.514;1.500;2023-08-24T10:25:45;9.77;;;6.07;;
81864;SDS011;71313;43.514;1.500;2023-08-24T10:28:11;10.02;;;6.55;;
81864;SDS011;71313;43.514;1.500;2023-08-24T10:30:38;9.82;;;6.90;;
81864;SDS011;71313;43.514;1.500;2023-08-24T10:33:04;9.98;;;6.22;;
81864;SDS011;71313;43.514;1.500;2023-08-24T10:35:31;11.10;;;6.75;;
81864;SDS011;71313;43.514;1.500;2023-08-24T10:38:00;9.05;;;6.20;;
81864;SDS011;71313;43.514;1.500;2023-08-24T10:40:32;10.85;;;6.78;;
81864;SDS011;71313;43.514;1.500;2023-08-24T10:42:58;10.70;;;7.63;;
81864;SDS011;71313;43.514;1.500;2023-08-24T10:45:53;11.52;;;7.85;;
81864;SDS011;71313;43.514;1.500;2023-08-24T10:48:29;11.52;;;7.97;;
81864;SDS011;71313;43.514;1.500;2023-08-24T10:53:38;12.98;;;9.38;;
81864;SDS011;71313;43.514;1.500;2023-08-24T10:56:11;12.77;;;9.05;;
81864;SDS011;71313;43.514;1.500;2023-08-24T10:58:41;14.82;;;8.85;;
81864;SDS011;71313;43.514;1.500;2023-08-24T11:01:13;13.00;;;9.10;;
81864;SDS011;71313;43.514;1.500;2023-08-24T11:03:39;12.25;;;8.00;;
81864;SDS011;71313;43.514;1.500;2023-08-24T11:06:17;13.05;;;8.52;;
81864;SDS011;71313;43.514;1.500;2023-08-24T11:08:47;13.00;;;8.32;;
81864;SDS011;71313;43.514;1.500;2023-08-24T11:11:22;11.35;;;8.60;;
81864;SDS011;71313;43.514;1.500;2023-08-24T11:17:00;9.30;;;6.93;;
81864;SDS011;71313;43.514;1.500;2023-08-24T11:19:27;10.70;;;7.20;;
81864;SDS011;71313;43.514;1.500;2023-08-24T11:21:53;9.98;;;6.95;;
81864;SDS011;71313;43.514;1.500;2023-08-24T11:24:18;10.88;;;7.43;;
81864;SDS011;71313;43.514;1.500;2023-08-24T11:26:47;12.43;;;7.68;;
81864;SDS011;71313;43.514;1.500;2023-08-24T11:29:14;10.25;;;7.40;;
81864;SDS011;71313;43.514;1.500;2023-08-24T11:31:43;10.75;;;7.15;;
81864;SDS011;71313;43.514;1.500;2023-08-24T11:34:09;12.48;;;8.45;;
81864;SDS011;71313;43.514;1.500;2023-08-24T11:36:42;12.80;;;9.57;;
81864;SDS011;71313;43.514;1.500;2023-08-24T11:39:14;12.50;;;8.32;;
81864;SDS011;71313;43.514;1.500;2023-08-24T11:41:45;13.30;;;9.10;;
81864;SDS011;71313;43.514;1.500;2023-08-24T11:44:23;15.23;;;9.82;;
81864;SDS011;71313;43.514;1.500;2023-08-24T11:46:48;10.65;;;8.20;;
81864;SDS011;71313;43.514;1.500;2023-08-24T11:49:14;11.65;;;8.20;;
81864;SDS011;71313;43.514;1.500;2023-08-24T11:51:39;10.65;;;7.50;;
81864;SDS011;71313;43.514;1.500;2023-08-24T11:54:05;12.95;;;8.93;;
81864;SDS011;71313;43.514;1.500;2023-08-24T11:56:31;12.32;;;8.88;;
81864;SDS011;71313;43.514;1.500;2023-08-24T11:58:56;12.30;;;9.88;;
81864;SDS011;71313;43.514;1.500;2023-08-24T12:01:22;13.18;;;8.93;;
81864;SDS011;71313;43.514;1.500;2023-08-24T12:03:48;13.70;;;9.55;;
81864;SDS011;71313;43.514;1.500;2023-08-24T12:06:14;13.27;;;8.88;;
81864;SDS011;71313;43.514;1.500;2023-08-24T12:08:41;13.18;;;9.38;;
81864;SDS011;71313;43.514;1.500;2023-08-24T12:13:42;12.32;;;9.40;;
81864;SDS011;71313;43.514;1.500;2023-08-24T12:16:09;13.93;;;9.57;;
81864;SDS011;71313;43.514;1.500;2023-08-24T12:18:35;12.18;;;9.30;;
81864;SDS011;71313;43.514;1.500;2023-08-24T12:21:11;13.95;;;10.75;;
81864;SDS011;71313;43.514;1.500;2023-08-24T12:23:38;15.13;;;9.70;;
81864;SDS011;71313;43.514;1.500;2023-08-24T12:26:03;14.68;;;10.48;;
81864;SDS011;71313;43.514;1.500;2023-08-24T12:28:32;12.32;;;8.82;;
81864;SDS011;71313;43.514;1.500;2023-08-24T12:30:58;13.27;;;9.27;;
81864;SDS011;71313;43.514;1.500;2023-08-24T12:33:27;13.63;;;8.80;;
81864;SDS011;71313;43.514;1.500;2023-08-24T12:35:54;14.57;;;9.23;;
81864;SDS011;71313;43.514;1.500;2023-08-24T12:38:20;12.45;;;8.93;;
81864;SDS011;71313;43.514;1.500;2023-08-24T12:40:46;12.10;;;8.68;;
81864;SDS011;71313;43.514;1.500;2023-08-24T12:43:12;12.85;;;8.32;;
81864;SDS011;71313;43.514;1.500;2023-08-24T12:45:38;11.45;;;8.60;;
81864;SDS011;71313;43.514;1.500;2023-08-24T12:48:04;11.63;;;8.43;;
81864;SDS011;71313;43.514;1.500;2023-08-24T12:50:30;13.95;;;9.63;;
81864;SDS011;71313;43.514;1.500;2023-08-24T12:52:55;10.68;;;7.47;;
81864;SDS011;71313;43.514;1.500;2023-08-24T12:55:24;11.02;;;8.00;;
81864;SDS011;71313;43.514;1.500;2023-08-24T12:57:50;12.32;;;7.30;;
81864;SDS011;71313;43.514;1.500;2023-08-24T13:00:16;11.70;;;8.55;;
81864;SDS011;71313;43.514;1.500;2023-08-24T13:02:41;10.23;;;7.25;;
81864;SDS011;71313;43.514;1.500;2023-08-24T13:05:07;11.40;;;7.20;;
81864;SDS011;71313;43.514;1.500;2023-08-24T13:07:33;12.50;;;8.10;;
81864;SDS011;71313;43.514;1.500;2023-08-24T13:09:58;9.95;;;7.07;;
81864;SDS011;71313;43.514;1.500;2023-08-24T13:12:24;10.98;;;7.65;;
81864;SDS011;71313;43.514;1.500;2023-08-24T13:14:50;9.57;;;7.22;;
81864;SDS011;71313;43.514;1.500;2023-08-24T13:17:15;13.43;;;7.57;;
81864;SDS011;71313;43.514;1.500;2023-08-24T13:19:41;11.57;;;7.22;;
81864;SDS011;71313;43.514;1.500;2023-08-24T13:22:06;10.15;;;7.88;;
81864;SDS011;71313;43.514;1.500;2023-08-24T13:24:33;11.95;;;7.88;;
81864;SDS011;71313;43.514;1.500;2023-08-24T13:26:59;11.50;;;7.15;;
81864;SDS011;71313;43.514;1.500;2023-08-24T13:29:24;12.52;;;8.15;;
81864;SDS011;71313;43.514;1.500;2023-08-24T13:31:50;11.52;;;7.57;;
81864;SDS011;71313;43.514;1.500;2023-08-24T13:34:15;10.95;;;7.90;;
81864;SDS011;71313;43.514;1.500;2023-08-24T13:36:40;12.68;;;7.95;;
81864;SDS011;71313;43.514;1.500;2023-08-24T13:39:06;10.35;;;7.72;;
81864;SDS011;71313;43.514;1.500;2023-08-24T13:41:31;10.95;;;7.72;;
81864;SDS011;71313;43.514;1.500;2023-08-24T13:43:57;9.70;;;7.15;;
81864;SDS011;71313;43.514;1.500;2023-08-24T13:46:22;9.38;;;7.05;;
81864;SDS011;71313;43.514;1.500;2023-08-24T13:48:47;10.65;;;7.03;;
81864;SDS011;71313;43.514;1.500;2023-08-24T13:51:13;10.02;;;7.30;;
81864;SDS011;71313;43.514;1.500;2023-08-24T13:53:38;12.07;;;7.78;;
81864;SDS011;71313;43.514;1.500;2023-08-24T13:56:04;10.00;;;6.97;;
81864;SDS011;71313;43.514;1.500;2023-08-24T13:58:30;9.55;;;6.57;;
81864;SDS011;71313;43.514;1.500;2023-08-24T14:00:56;9.98;;;6.80;;
81864;SDS011;71313;43.514;1.500;2023-08-24T14:03:22;10.23;;;7.00;;
81864;SDS011;71313;43.514;1.500;2023-08-24T14:05:47;9.52;;;6.85;;
81864;SDS011;71313;43.514;1.500;2023-08-24T14:08:14;11.82;;;7.80;;
81864;SDS011;71313;43.514;1.500;2023-08-24T14:10:40;11.88;;;8.05;;
81864;SDS011;71313;43.514;1.500;2023-08-24T14:13:05;11.15;;;7.68;;
81864;SDS011;71313;43.514;1.500;2023-08-24T14:15:31;11.23;;;8.25;;
81864;SDS011;71313;43.514;1.500;2023-08-24T14:17:56;13.93;;;9.15;;
81864;SDS011;71313;43.514;1.500;2023-08-24T14:20:22;12.13;;;8.75;;
81864;SDS011;71313;43.514;1.500;2023-08-24T14:22:47;13.18;;;8.30;;
81864;SDS011;71313;43.514;1.500;2023-08-24T14:25:13;11.05;;;7.25;;
81864;SDS011;71313;43.514;1.500;2023-08-24T14:27:39;12.88;;;9.00;;
81864;SDS011;71313;43.514;1.500;2023-08-24T14:30:07;10.90;;;7.88;;
81864;SDS011;71313;43.514;1.500;2023-08-24T14:32:33;9.50;;;7.00;;
81864;SDS011;71313;43.514;1.500;2023-08-24T14:34:58;11.85;;;7.68;;
81864;SDS011;71313;43.514;1.500;2023-08-24T14:37:24;9.13;;;7.00;;
81864;SDS011;71313;43.514;1.500;2023-08-24T14:39:50;10.98;;;7.32;;
81864;SDS011;71313;43.514;1.500;2023-08-24T14:42:16;12.77;;;8.48;;
81864;SDS011;71313;43.514;1.500;2023-08-24T14:44:41;12.45;;;7.60;;
81864;SDS011;71313;43.514;1.500;2023-08-24T14:47:06;10.32;;;8.05;;
81864;SDS011;71313;43.514;1.500;2023-08-24T14:49:32;12.75;;;8.70;;
81864;SDS011;71313;43.514;1.500;2023-08-24T14:51:57;12.60;;;8.32;;